Time;durP1;ratioP1;P1;durP2;ratioP2;P2;SDS_P1;SDS_P2;PMS_P1;PMS_P2;Temp;Humidity;BMP_temperature;BMP_pressure;BME280_temperature;BME280_humidity;BME280_pressure;Samples;Min_cycle;Max_cycle;Signal;HPM_P1;HPM_P2
2023/04/17 00:02:29;;;;;;;971.83;892.22;;;;;;;21.96;53.34;99994.25;20754270;28;20046;-80
2023/04/17 00:12:30;;;;;;;940.00;862.13;;;;;;;21.95;53.55;99988.16;20762348;28;20057;-80
2023/04/17 00:22:30;;;;;;;998.67;917.65;;;;;;;21.93;53.61;99979.53;20761404;28;20412;-80
2023/04/17 00:32:31;;;;;;;1010.03;928.38;;;;;;;21.93;53.48;99976.91;20754564;28;20502;-79
2023/04/17 00:42:31;;;;;;;1087.88;999.90;;;;;;;21.91;53.64;99978.88;20752161;28;20100;-79
2023/04/17 00:52:33;;;;;;;1072.70;987.95;;;;;;;21.90;53.38;99978.00;20759137;28;20041;-79
2023/04/17 01:02:33;;;;;;;1024.65;942.28;;;;;;;21.89;53.25;99983.41;20751520;28;20275;-78
2023/04/17 01:12:35;;;;;;;1011.63;930.00;;;;;;;21.87;53.54;99980.94;20749256;28;20052;-81
2023/04/17 01:22:36;;;;;;;1076.30;991.40;;;;;;;21.87;53.60;99977.44;20741022;28;20038;-81
2023/04/17 01:32:37;;;;;;;1020.97;938.93;;;;;;;21.84;53.42;99967.19;20746030;28;20075;-80
2023/04/17 01:42:38;;;;;;;1078.90;993.60;;;;;;;21.84;53.32;99961.91;20746497;28;20289;-79
2023/04/17 01:52:38;;;;;;;1040.15;956.95;;;;;;;21.81;53.25;99955.06;20766351;28;20041;-78
2023/04/17 02:02:41;;;;;;;1051.35;967.70;;;;;;;21.81;53.41;99964.78;20767732;28;20049;-78
2023/04/17 02:12:41;;;;;;;1048.35;964.85;;;;;;;21.79;53.25;99964.09;20776874;28;20037;-78
2023/04/17 02:22:43;;;;;;;1016.22;934.50;;;;;;;21.79;53.18;99964.09;20772514;28;20043;-78
2023/04/17 02:32:44;;;;;;;1030.30;947.60;;;;;;;21.77;53.13;99958.13;20773273;28;20345;-78
2023/04/17 02:42:44;;;;;;;1022.88;940.70;;;;;;;21.77;53.30;99960.78;20780198;28;20050;-78
2023/04/17 02:52:45;;;;;;;1062.00;978.15;;;;;;;21.76;53.30;99959.91;20776621;28;20041;-78
2023/04/17 03:02:46;;;;;;;1037.38;954.58;;;;;;;21.73;52.98;99965.47;20756538;28;20501;-78
2023/04/17 03:12:47;;;;;;;1052.40;968.72;;;;;;;21.72;53.39;99972.53;20759411;28;20038;-78
2023/04/17 03:22:49;;;;;;;1001.35;920.53;;;;;;;21.72;53.34;99969.88;20760526;28;20559;-79
2023/04/17 03:32:50;;;;;;;1001.10;920.25;;;;;;;21.71;53.19;99965.59;20768575;28;20128;-78
2023/04/17 03:42:50;;;;;;;1004.00;922.97;;;;;;;21.71;53.21;99972.66;20765004;28;20106;-79
2023/04/17 03:52:50;;;;;;;1039.20;956.13;;;;;;;21.72;53.67;99976.97;20721712;28;20045;-75
2023/04/17 04:02:51;;;;;;;1038.70;955.85;;;;;;;21.72;53.78;99984.88;20697725;28;20053;-76
2023/04/17 04:12:58;;;;;;;1027.40;945.25;;;;;;;21.70;53.02;99986.81;20729023;28;20042;-77
2023/04/17 04:22:59;;;;;;;1076.60;991.60;;;;;;;21.72;53.49;99990.16;20764938;28;20374;-75
2023/04/17 04:33:04;;;;;;;1024.15;941.67;;;;;;;21.75;54.71;100006.53;20751915;28;20037;-83
2023/04/17 04:43:05;;;;;;;1006.60;924.75;;;;;;;21.77;54.51;100016.13;20744042;28;20133;-76
2023/04/17 04:53:06;;;;;;;1046.22;962.28;;;;;;;21.77;54.61;100021.38;20715453;28;20060;-77
2023/04/17 05:03:06;;;;;;;1019.30;937.05;;;;;;;21.64;51.70;100040.88;20732678;28;20050;-82
2023/04/17 05:13:07;;;;;;;1075.45;990.63;;;;;;;21.40;42.22;100041.13;20721487;28;20041;-76
2023/04/17 05:23:09;;;;;;;1085.45;999.33;;;;;;;21.49;45.88;100039.50;20733133;28;20038;-82
2023/04/17 05:33:10;;;;;;;1090.78;999.90;;;;;;;21.56;49.11;100044.16;20756800;28;20068;-77
2023/04/17 05:43:11;;;;;;;1096.93;999.90;;;;;;;21.59;50.88;100041.25;20741345;28;20042;-77
2023/04/17 05:53:11;;;;;;;1091.63;999.90;;;;;;;21.59;50.31;100054.44;20744309;28;20093;-78
2023/04/17 06:03:12;;;;;;;1073.05;988.00;;;;;;;21.63;51.79;100062.06;20761624;28;20053;-78
2023/04/17 06:13:13;;;;;;;1093.72;999.90;;;;;;;21.63;52.48;100068.19;20760014;28;20041;-79
2023/04/17 06:23:15;;;;;;;1088.40;999.90;;;;;;;21.65;52.40;100066.25;20744935;28;20049;-80
2023/04/17 06:33:16;;;;;;;1088.45;999.40;;;;;;;21.67;52.34;100077.50;20749220;28;20038;-80
2023/04/17 06:43:17;;;;;;;1106.50;999.90;;;;;;;21.70;52.48;100081.66;20752023;28;20042;-77
2023/04/17 06:53:18;;;;;;;1084.93;999.15;;;;;;;21.72;52.70;100085.00;20767768;28;20056;-78
2023/04/17 07:03:18;;;;;;;1082.13;996.65;;;;;;;21.73;52.32;100091.97;20761946;28;20170;-77
2023/04/17 07:13:18;;;;;;;1079.45;994.28;;;;;;;21.74;52.41;100091.81;20743721;28;20038;-76
2023/04/17 07:23:19;;;;;;;1093.68;999.90;;;;;;;21.81;52.57;100105.31;20750848;28;20046;-77
2023/04/17 07:33:20;;;;;;;1128.82;999.90;;;;;;;21.84;52.71;100091.06;20762991;28;20037;-79
2023/04/17 07:43:22;;;;;;;1111.97;999.90;;;;;;;21.87;52.53;100096.91;20773672;28;20072;-80
2023/04/17 07:53:30;;;;;;;1126.20;999.90;;;;;;;21.90;52.28;100096.63;20770059;28;20042;-80
2023/04/17 08:03:31;;;;;;;1122.00;999.90;;;;;;;21.92;52.33;100101.75;20775204;28;20042;-80
2023/04/17 08:13:32;;;;;;;1118.13;999.90;;;;;;;21.93;52.13;100100.81;20772607;28;20050;-80
2023/04/17 08:23:32;;;;;;;1096.13;999.90;;;;;;;21.95;52.28;100105.94;20788397;28;20318;-83
2023/04/17 08:33:33;;;;;;;1086.65;999.63;;;;;;;21.98;50.93;100108.31;20771000;28;20050;-81
2023/04/17 08:43:35;;;;;;;1119.47;999.90;;;;;;;21.64;43.79;100101.47;20773958;28;20034;-84
2023/04/17 08:53:37;;;;;;;1118.45;999.90;;;;;;;21.72;45.66;100099.00;20751007;28;20137;-79
2023/04/17 09:03:40;;;;;;;1111.85;999.90;;;;;;;21.79;47.14;100101.13;20770360;28;20046;-85
2023/04/17 09:13:40;;;;;;;1106.72;999.90;;;;;;;21.84;48.23;100097.16;20766132;28;20037;-83
2023/04/17 09:23:59;;;;;;;1116.43;999.90;;;;;;;21.88;48.77;100095.09;20754216;28;20117;-78
2023/04/17 09:34:02;;;;;;;1125.72;999.90;;;;;;;21.92;49.55;100101.75;20776730;28;20084;-78
2023/04/17 09:44:05;;;;;;;1128.95;999.90;;;;;;;21.95;49.85;100098.03;20784597;28;20041;-79
2023/04/17 09:54:14;;;;;;;1095.45;999.90;;;;;;;21.99;50.01;100097.63;20787330;28;20045;-77
2023/04/17 10:04:15;;;;;;;1102.07;999.90;;;;;;;22.03;50.40;100091.16;20773972;28;20060;-80
2023/04/17 10:14:24;;;;;;;1093.63;999.90;;;;;;;22.05;50.40;100081.28;20800895;28;20047;-83
2023/04/17 10:24:25;;;;;;;1073.60;987.85;;;;;;;22.08;50.76;100085.47;20803217;28;20038;-86
2023/04/17 10:34:40;;;;;;;1081.57;995.30;;;;;;;22.10;50.78;100077.44;20789648;28;20121;-82
2023/04/17 10:44:44;;;;;;;1096.25;999.90;;;;;;;22.13;50.66;100071.88;20798692;28;20069;-81
2023/04/17 10:55:05;;;;;;;1096.80;999.90;;;;;;;22.14;50.64;100079.69;20798543;28;20042;-82
2023/04/17 11:05:06;;;;;;;1059.68;974.42;;;;;;;22.18;50.91;100072.31;20778088;28;20080;-78
2023/04/17 11:15:07;;;;;;;1084.35;997.83;;;;;;;22.21;50.96;100070.25;20778912;28;20038;-82
2023/04/17 11:25:08;;;;;;;1087.25;999.55;;;;;;;22.30;50.88;100058.09;20816886;28;20125;-84
2023/04/17 11:35:09;;;;;;;1091.13;999.90;;;;;;;22.38;50.76;100047.69;20792438;28;20109;-85
2023/04/17 11:45:10;;;;;;;1105.40;999.90;;;;;;;22.44;50.65;100048.16;20780478;28;20278;-85
2023/04/17 11:55:15;;;;;;;1104.60;999.90;;;;;;;22.47;51.16;100055.78;20787343;28;20057;-82
2023/04/17 12:05:19;;;;;;;1083.63;996.55;;;;;;;22.48;51.19;100057.47;20799349;28;20061;-82
2023/04/17 12:15:20;;;;;;;1110.13;999.90;;;;;;;22.48;51.44;100058.28;20772484;28;20049;-78
2023/04/17 12:25:21;;;;;;;1097.93;999.90;;;;;;;22.46;51.25;100047.03;20753945;28;20040;-84
2023/04/17 12:35:22;;;;;;;1112.15;999.90;;;;;;;22.46;51.10;100051.47;20757399;28;20046;-79
2023/04/17 12:45:23;;;;;;;1090.85;999.60;;;;;;;22.36;44.94;100031.16;20742116;28;20848;-79
2023/04/17 12:55:25;;;;;;;1086.25;998.75;;;;;;;22.33;46.16;100028.78;20731858;28;20053;-84
2023/04/17 13:05:27;;;;;;;1080.57;993.87;;;;;;;22.39;47.59;100024.81;20739627;28;20038;-78
2023/04/17 13:15:27;;;;;;;1094.43;999.90;;;;;;;22.44;48.96;100019.13;20736218;28;20050;-81
2023/04/17 13:25:29;;;;;;;1100.85;999.90;;;;;;;22.46;49.43;100009.25;20744100;28;20061;-78
2023/04/17 13:35:35;;;;;;;1121.60;999.90;;;;;;;22.22;43.39;100021.00;20726665;28;20049;-77
2023/04/17 13:45:44;;;;;;;1131.40;999.90;;;;;;;22.05;43.49;100007.47;20730707;28;20084;-76
2023/04/17 13:55:47;;;;;;;1094.22;999.75;;;;;;;22.16;45.62;100014.44;20732728;28;20079;-84
2023/04/17 14:05:47;;;;;;;1123.00;999.90;;;;;;;22.16;46.46;100010.97;20733277;28;20046;-84
2023/04/17 14:15:51;;;;;;;1132.50;999.90;;;;;;;22.17;46.08;100010.03;20747471;28;20042;-74
2023/04/17 14:25:51;;;;;;;1118.47;999.90;;;;;;;22.16;45.84;99995.97;20749598;28;20042;-78
2023/04/17 14:35:55;;;;;;;1135.93;999.90;;;;;;;22.43;46.52;99985.81;20734911;28;20452;-76
2023/04/17 14:45:56;;;;;;;1149.80;999.90;;;;;;;22.69;46.42;99979.03;20703744;28;20068;-81
2023/04/17 14:55:58;;;;;;;1170.65;999.90;;;;;;;22.68;46.09;99985.28;20743436;28;20134;-79
2023/04/17 15:06:00;;;;;;;1149.13;999.90;;;;;;;22.65;45.47;99977.63;20746020;28;20841;-80
2023/04/17 15:16:00;;;;;;;1158.30;999.90;;;;;;;22.62;45.32;99979.69;20736917;28;20314;-80
2023/04/17 15:26:02;;;;;;;1149.30;999.90;;;;;;;22.52;44.69;99977.91;20734557;28;20462;-82
2023/04/17 15:36:03;;;;;;;1153.20;999.90;;;;;;;22.45;45.24;99986.47;20736432;28;20068;-80
2023/04/17 15:46:03;;;;;;;1143.80;999.90;;;;;;;22.37;44.46;99982.72;20730342;28;20050;-80
2023/04/17 15:56:05;;;;;;;1171.37;999.90;;;;;;;22.31;43.28;99991.16;20723249;28;20046;-77
2023/04/17 16:06:06;;;;;;;1157.60;999.90;;;;;;;22.30;46.03;99988.66;20710557;28;20284;-79
2023/04/17 16:16:07;;;;;;;1128.95;999.90;;;;;;;22.30;45.25;99988.66;20725262;28;20045;-79
2023/04/17 16:26:17;;;;;;;1129.20;999.90;;;;;;;22.28;45.33;99995.88;20727006;28;20049;-80
2023/04/17 16:36:18;;;;;;;1145.97;999.90;;;;;;;22.26;46.16;100001.28;20716226;28;20037;-87
2023/04/17 16:46:20;;;;;;;1163.22;999.90;;;;;;;22.23;46.42;100004.19;20738614;28;20140;-85
2023/04/17 16:56:22;;;;;;;1163.72;999.90;;;;;;;22.17;46.17;100002.94;20735603;28;20567;-82
2023/04/17 17:06:23;;;;;;;1155.30;999.90;;;;;;;22.22;44.78;100002.53;20736311;28;20135;-81
2023/04/17 17:16:25;;;;;;;1153.28;999.90;;;;;;;22.26;48.65;100006.56;20720481;28;20052;-82
2023/04/17 17:26:25;;;;;;;1141.22;999.90;;;;;;;22.28;49.95;100004.63;20728581;28;20050;-85
2023/04/17 17:36:26;;;;;;;1138.68;999.90;;;;;;;22.29;51.50;100006.28;20751135;28;20041;-86
2023/04/17 17:46:29;;;;;;;1142.85;999.90;;;;;;;22.32;53.07;100003.38;20758868;28;20049;-82
2023/04/17 17:56:29;;;;;;;1145.38;999.90;;;;;;;22.32;53.76;100016.56;20737071;28;20108;-79
2023/04/17 18:06:30;;;;;;;1144.07;999.90;;;;;;;22.35;53.80;100026.84;20739653;28;20409;-82
2023/04/17 18:16:32;;;;;;;1163.30;999.90;;;;;;;22.37;53.54;100029.34;20727565;28;20042;-82
2023/04/17 18:26:33;;;;;;;1164.13;999.90;;;;;;;22.36;53.26;100036.44;20733534;28;20049;-85
2023/04/17 18:36:33;;;;;;;1174.13;999.90;;;;;;;22.36;53.24;100044.34;20733391;28;20105;-80
2023/04/17 18:46:35;;;;;;;1178.53;999.90;;;;;;;22.34;53.25;100046.28;20729016;28;20049;-80
2023/04/17 18:56:38;;;;;;;1178.55;999.90;;;;;;;22.35;53.54;100047.97;20734975;28;20038;-80
2023/04/17 19:06:39;;;;;;;1173.03;999.90;;;;;;;22.33;52.98;100062.25;20713909;28;20520;-76
2023/04/17 19:16:39;;;;;;;1167.57;999.90;;;;;;;22.34;52.68;100071.84;20729294;28;20034;-78
2023/04/17 19:26:42;;;;;;;1170.22;999.90;;;;;;;22.30;52.70;100071.28;20716947;28;20049;-77
2023/04/17 19:36:43;;;;;;;1177.05;999.90;;;;;;;22.28;52.85;100064.47;20718956;28;20616;-77
2023/04/17 19:46:44;;;;;;;1174.72;999.90;;;;;;;22.27;52.88;100055.69;20733577;28;20037;-77
2023/04/17 19:56:45;;;;;;;1168.45;999.90;;;;;;;22.27;52.75;100049.59;20732756;28;20034;-77
2023/04/17 20:06:45;;;;;;;1168.78;999.90;;;;;;;22.28;53.21;100057.38;20729269;28;20062;-77
2023/04/17 20:16:48;;;;;;;1168.88;999.90;;;;;;;22.27;53.48;100060.16;20715296;28;20386;-77
2023/04/17 20:26:49;;;;;;;1177.63;999.90;;;;;;;22.27;53.68;100068.06;20714925;28;20072;-77
2023/04/17 20:36:49;;;;;;;1175.03;999.90;;;;;;;22.26;54.10;100069.84;20721528;28;20061;-76
2023/04/17 20:46:50;;;;;;;1177.70;999.90;;;;;;;22.26;53.45;100074.31;20728751;28;20493;-77
2023/04/17 20:56:50;;;;;;;1178.95;999.90;;;;;;;22.25;53.55;100083.19;20699230;28;20116;-77
2023/04/17 21:06:51;;;;;;;1175.28;999.90;;;;;;;22.24;53.69;100090.28;20714787;28;20947;-76
2023/04/17 21:16:53;;;;;;;1174.82;999.90;;;;;;;22.22;53.26;100090.38;20724412;28;20056;-78
2023/04/17 21:26:57;;;;;;;1173.40;999.90;;;;;;;22.19;53.28;100103.00;20725136;28;20057;-77
2023/04/17 21:37:00;;;;;;;1175.25;999.90;;;;;;;22.19;53.07;100089.81;20721224;28;20054;-76
2023/04/17 21:47:01;;;;;;;1172.25;999.90;;;;;;;22.17;53.31;100092.59;20717928;28;20041;-78
2023/04/17 21:57:02;;;;;;;1170.55;999.90;;;;;;;22.17;52.95;100103.13;20719543;28;20045;-76
2023/04/17 22:07:03;;;;;;;1173.85;999.90;;;;;;;22.16;52.96;100090.91;20724034;28;20559;-77
2023/04/17 22:17:04;;;;;;;1174.10;999.90;;;;;;;22.15;52.69;100091.06;20727138;28;20041;-75
2023/04/17 22:27:04;;;;;;;1176.78;999.90;;;;;;;22.14;52.91;100087.59;20731707;28;20048;-74
2023/04/17 22:37:04;;;;;;;1177.65;999.90;;;;;;;22.13;52.77;100104.38;20731750;28;21201;-76
2023/04/17 22:47:05;;;;;;;1176.38;999.90;;;;;;;22.12;52.77;100110.63;20721624;28;20045;-76
2023/04/17 22:57:13;;;;;;;1177.80;999.90;;;;;;;22.12;52.71;100109.75;20733069;28;20041;-76
2023/04/17 23:07:15;;;;;;;1176.22;999.90;;;;;;;22.09;52.77;100107.41;20723051;28;20049;-78
2023/04/17 23:17:15;;;;;;;1177.07;999.90;;;;;;;22.09;52.99;100115.31;20727587;28;20120;-76
2023/04/17 23:27:16;;;;;;;1174.88;999.90;;;;;;;22.05;53.02;100118.19;20724121;28;20056;-76
2023/04/17 23:37:16;;;;;;;1174.78;999.90;;;;;;;22.03;52.71;100106.97;20723480;28;20045;-76
2023/04/17 23:47:21;;;;;;;1174.22;999.90;;;;;;;22.05;52.72;100106.84;20739227;28;20041;-76
2023/04/17 23:57:21;;;;;;;1172.30;999.90;;;;;;;22.04;52.90;100094.63;20724255;28;20050;-77
